1994 ODILLE (1994086S08092)


On this page: IBTrACS data - Map and Plots - Positions - Intensities - Original source data

Summary

Start Mar 26
End Apr 17
Basin SI
LMI 105 kt
Sources jtwc_sh
reunion
neumann
In WMO? Yes
Previous storm 1994 USHA0 (SP)
Previous in basin 1994 NADIA (SI)
Concurrent storms 1994 NADIA (SI)
1994 THOMAS (SP)
1994 USHA (SP)
1994 ODILLE (SI)
1994 TIM (SI)
1994 OWEN (WP)
1994 VIVIENNE (SI)
Next in basin 1994 TIM (SI)
Next storm 1994 TIM (SI)

top of page IBTrACS Data: File Access

top of page HURSAT Data: File Access

Image of storm

top of page Plots:

Map of storm track will not appear if FTP is down
Time series of cyclone Maximum Sustained Wind will not appear if FTP is down
Time series of cyclone Minimum Central Pressure will not appear if FTP is down

top of page Track Data:Position

jtwc_sh reunion neumann
Date Lat Lon Lat Lon Lat Lon
1994-03-26 18:00:00 -7.8 91.5 -7.8 91.5
1994-03-27 00:00:00 -8.0 91.7 -8.0 91.7
1994-03-27 06:00:00 -8.2 91.9 -8.2 91.9
1994-03-27 12:00:00 -8.4 92.1 -8.4 92.1
1994-03-27 18:00:00 -8.7 92.3 -8.7 92.3
1994-03-28 00:00:00 -9.0 92.5 -9.0 92.5
1994-03-28 06:00:00 -9.3 92.6 -9.3 92.6
1994-03-28 12:00:00 -9.6 92.6 -9.6 92.6
1994-03-28 18:00:00 -9.8 92.6 -9.8 92.6
1994-03-29 00:00:00 -10.1 92.5 -10.1 92.5
1994-03-29 06:00:00 -10.3 92.3 -10.3 92.3
1994-03-29 12:00:00 -10.5 92.1 -10.5 92.1
1994-03-29 18:00:00 -10.7 91.8 -11.0 91.5 -10.7 91.8
1994-03-30 00:00:00 -10.8 91.4 -11.0 91.0 -10.8 91.4
1994-03-30 06:00:00 -10.9 91.0 -10.9 90.5 -10.9 91.0
1994-03-30 12:00:00 -10.9 90.5 -10.8 90.0 -10.9 90.5
1994-03-30 18:00:00 -10.8 90.0 -10.8 89.7 -10.8 90.0
1994-03-31 00:00:00 -10.7 89.5 -10.7 89.2 -10.7 89.5
1994-03-31 06:00:00 -10.6 88.9 -10.4 88.5 -10.6 88.9
1994-03-31 12:00:00 -10.5 88.4 -10.3 88.1 -10.5 88.4
1994-03-31 18:00:00 -10.4 87.9 -10.3 87.6 -10.4 87.9
1994-04-01 00:00:00 -10.3 87.3 -10.3 87.2 -10.3 87.3
1994-04-01 06:00:00 -10.3 86.8 -10.3 86.8 -10.3 86.8
1994-04-01 12:00:00 -10.4 86.3 -10.4 86.4 -10.4 86.3
1994-04-01 18:00:00 -10.6 85.7 -10.5 86.0 -10.6 85.7
jtwc_sh reunion neumann
1994-04-02 00:00:00 -10.8 85.1 -10.6 85.6 -10.8 85.1
1994-04-02 06:00:00 -11.0 84.4 -10.8 85.1 -11.0 84.4
1994-04-02 12:00:00 -11.2 83.7 -11.2 84.3 -11.2 83.7
1994-04-02 18:00:00 -11.4 83.0 -11.6 83.4 -11.4 83.0
1994-04-03 00:00:00 -11.6 82.3 -11.9 82.6 -11.6 82.3
1994-04-03 06:00:00 -11.8 81.7 -12.1 82.0 -11.8 81.7
1994-04-03 12:00:00 -12.1 81.1 -12.3 81.5 -12.1 81.1
1994-04-03 18:00:00 -12.4 80.4 -12.6 80.8 -12.4 80.4
1994-04-04 00:00:00 -12.6 79.6 -12.9 80.0 -12.6 79.6
1994-04-04 06:00:00 -12.8 78.7 -13.1 79.0 -12.8 78.7
1994-04-04 12:00:00 -12.7 77.8 -13.0 77.9 -12.7 77.8
1994-04-04 18:00:00 -12.5 76.9 -12.8 76.8 -12.5 76.9
1994-04-05 00:00:00 -12.1 76.0 -12.3 75.8 -12.1 76.0
1994-04-05 06:00:00 -11.7 75.1 -11.7 75.1 -11.7 75.1
1994-04-05 12:00:00 -11.3 74.3 -11.4 74.8 -11.3 74.3
1994-04-05 18:00:00 -10.9 73.6 -11.1 74.4 -10.9 73.6
1994-04-06 00:00:00 -10.5 72.9 -10.8 73.9 -10.5 72.9
1994-04-06 06:00:00 -10.2 72.1 -10.4 73.4 -10.2 72.1
1994-04-06 12:00:00 -10.1 71.4 -10.1 72.7 -10.1 71.4
1994-04-06 18:00:00 -10.2 70.8 -9.9 71.9 -10.2 70.8
1994-04-07 00:00:00 -10.4 70.1 -9.9 70.9 -10.4 70.1
1994-04-07 06:00:00 -10.7 69.5 -10.0 69.9 -10.7 69.5
1994-04-07 12:00:00 -11.0 68.8 -10.4 69.2 -11.0 68.8
1994-04-07 18:00:00 -11.4 68.1 -11.0 68.3 -11.4 68.1
jtwc_sh reunion neumann
1994-04-08 00:00:00 -11.8 67.3 -11.7 67.5 -11.8 67.3
1994-04-08 06:00:00 -12.2 66.5 -12.5 66.5 -12.2 66.5
1994-04-08 12:00:00 -12.6 65.7 -13.1 65.8 -12.6 65.7
1994-04-08 18:00:00 -13.0 64.9 -13.7 64.8 -13.0 64.9
1994-04-09 00:00:00 -13.4 64.1 -14.3 64.0 -13.4 64.1
1994-04-09 06:00:00 -13.8 63.3 -14.5 63.1 -13.8 63.3
1994-04-09 12:00:00 -14.1 62.6 -14.6 62.2 -14.1 62.6
1994-04-09 18:00:00 -14.3 62.0 -14.6 61.9 -14.3 62.0
1994-04-10 00:00:00 -14.5 61.5 -14.7 61.5 -14.5 61.5
1994-04-10 06:00:00 -14.7 61.1 -14.8 61.0 -14.7 61.1
1994-04-10 12:00:00 -14.9 60.7 -15.0 60.7 -14.9 60.7
1994-04-10 18:00:00 -15.1 60.4 -15.1 60.5 -15.1 60.4
1994-04-11 00:00:00 -15.4 60.1 -15.3 60.3 -15.4 60.1
1994-04-11 06:00:00 -15.9 60.0 -15.8 60.0 -15.9 60.0
1994-04-11 12:00:00 -16.5 60.0 -16.6 60.1 -16.5 60.0
1994-04-11 18:00:00 -17.2 60.2 -17.4 60.5 -17.2 60.2
1994-04-12 00:00:00 -18.1 60.7 -18.2 61.0 -18.1 60.7
1994-04-12 06:00:00 -19.1 61.4 -19.3 61.6 -19.1 61.4
1994-04-12 12:00:00 -20.3 62.1 -20.5 62.2 -20.3 62.1
1994-04-12 18:00:00 -21.6 62.7 -21.7 62.9 -21.6 62.7
1994-04-13 00:00:00 -23.1 63.3 -23.0 63.5 -23.1 63.3
1994-04-13 06:00:00 -24.6 64.2 -24.2 64.1 -24.6 64.2
1994-04-13 12:00:00 -26.2 65.5 -25.3 64.9 -26.2 65.5
1994-04-13 18:00:00 -27.7 67.3 -26.2 65.9 -27.7 67.3
jtwc_sh reunion neumann
1994-04-14 00:00:00 -29.2 69.2 -27.0 67.0 -29.2 69.2
1994-04-14 06:00:00 -30.6 71.3 -28.0 69.1 -30.6 71.3
1994-04-14 12:00:00 -28.8 71.8
1994-04-14 18:00:00 -28.6 74.3
1994-04-15 00:00:00 -28.3 76.7
1994-04-15 06:00:00 -28.3 77.9
1994-04-15 12:00:00 -28.6 78.8
1994-04-15 18:00:00 -29.0 80.0
1994-04-16 00:00:00 -29.9 81.6
1994-04-16 06:00:00 -30.9 83.4
1994-04-16 12:00:00 -31.8 85.1
1994-04-16 18:00:00 -32.5 86.9
1994-04-17 00:00:00 -32.8 88.3

top of pageTrack Data:Intensity

jtwc_sh reunion neumann
Date Wind Pres Wind Pres Wind Pres
1994-03-26 18:00:00 15. 15.
1994-03-27 00:00:00 15. 15.
1994-03-27 06:00:00 15. 15.
1994-03-27 12:00:00 15. 15.
1994-03-27 18:00:00 20. 20.
1994-03-28 00:00:00 20. 20.
1994-03-28 06:00:00 20. 20.
1994-03-28 12:00:00 20. 20.
1994-03-28 18:00:00 25. 25.
1994-03-29 00:00:00 25. 25.
1994-03-29 06:00:00 25. 25.
1994-03-29 12:00:00 25. 25.
1994-03-29 18:00:00 25. 20. 1002. 25.
1994-03-30 00:00:00 30. 25. 1000. 30.
1994-03-30 06:00:00 30. 25. 1000. 30.
1994-03-30 12:00:00 35. 28. 997. 35.
1994-03-30 18:00:00 35. 30. 995. 35.
1994-03-31 00:00:00 40. 35. 992. 40.
1994-03-31 06:00:00 40. 35. 992. 40.
1994-03-31 12:00:00 45. 35. 992. 45.
1994-03-31 18:00:00 45. 35. 992. 45.
1994-04-01 00:00:00 50. 35. 992. 50.
1994-04-01 06:00:00 50. 35. 992. 50.
1994-04-01 12:00:00 55. 35. 992. 55.
1994-04-01 18:00:00 60. 40. 988. 60.
jtwc_sh reunion neumann
1994-04-02 00:00:00 65. 45. 984. 65.
1994-04-02 06:00:00 70. 50. 978. 70.
1994-04-02 12:00:00 75. 55. 974. 75.
1994-04-02 18:00:00 75. 60. 970. 75.
1994-04-03 00:00:00 80. 62. 966. 80.
1994-04-03 06:00:00 80. 60. 970. 80.
1994-04-03 12:00:00 80. 60. 970. 80.
1994-04-03 18:00:00 75. 55. 974. 75.
1994-04-04 00:00:00 75. 50. 978. 75.
1994-04-04 06:00:00 70. 45. 984. 70.
1994-04-04 12:00:00 70. 40. 988. 70.
1994-04-04 18:00:00 65. 35. 992. 65.
1994-04-05 00:00:00 60. 35. 992. 60.
1994-04-05 06:00:00 55. 35. 992. 55.
1994-04-05 12:00:00 55. 30. 995. 55.
1994-04-05 18:00:00 50. 30. 995. 50.
1994-04-06 00:00:00 50. 28. 997. 50.
1994-04-06 06:00:00 45. 25. 1000. 45.
1994-04-06 12:00:00 45. 25. 1000. 45.
1994-04-06 18:00:00 45. 25. 1000. 45.
1994-04-07 00:00:00 45. 25. 1000. 45.
1994-04-07 06:00:00 45. 30. 995. 45.
1994-04-07 12:00:00 45. 35. 992. 45.
1994-04-07 18:00:00 45. 38. 990. 45.
jtwc_sh reunion neumann
1994-04-08 00:00:00 45. 45. 984. 45.
1994-04-08 06:00:00 50. 45. 984. 50.
1994-04-08 12:00:00 50. 50. 978. 50.
1994-04-08 18:00:00 55. 50. 978. 55.
1994-04-09 00:00:00 55. 55. 974. 55.
1994-04-09 06:00:00 60. 55. 974. 60.
1994-04-09 12:00:00 60. 55. 974. 60.
1994-04-09 18:00:00 65. 60. 968. 65.
1994-04-10 00:00:00 65. 65. 962. 65.
1994-04-10 06:00:00 70. 70. 955. 70.
1994-04-10 12:00:00 80. 75. 950. 80.
1994-04-10 18:00:00 90. 80. 945. 90.
1994-04-11 00:00:00 100. 80. 945. 100.
1994-04-11 06:00:00 105. 85. 935. 105.
1994-04-11 12:00:00 105. 90. 930. 105.
1994-04-11 18:00:00 100. 95. 925. 100.
1994-04-12 00:00:00 100. 95. 925. 100.
1994-04-12 06:00:00 95. 90. 930. 95.
1994-04-12 12:00:00 95. 80. 945. 95.
1994-04-12 18:00:00 90. 70. 955. 90.
1994-04-13 00:00:00 85. 60. 968. 85.
1994-04-13 06:00:00 75. 50. 978. 75.
1994-04-13 12:00:00 65. 42. 986. 65.
1994-04-13 18:00:00 55. 35. 992. 55.
jtwc_sh reunion neumann
1994-04-14 00:00:00 45. 30. 995. 45.
1994-04-14 06:00:00 40. 25. 1000. 40.
1994-04-14 12:00:00
1994-04-14 18:00:00
1994-04-15 00:00:00
1994-04-15 06:00:00
1994-04-15 12:00:00
1994-04-15 18:00:00
1994-04-16 00:00:00
1994-04-16 06:00:00
1994-04-16 12:00:00
1994-04-16 18:00:00
1994-04-17 00:00:00

top of page Links to source data

Source Source file Format
jtwc_sh bsh261994.txt ATCF
reunion WMO-Best-Tracks.txt:Line=16672:odille WMO (old format)
neumann tracks.sh:Storm=1009:ODILLE:BSH261994:JTWC HURDAT